Time;durP1;ratioP1;P1;durP2;ratioP2;P2;SDS_P1;SDS_P2;PMS_P1;PMS_P2;Temp;Humidity;BMP_temperature;BMP_pressure;BME280_temperature;BME280_humidity;BME280_pressure;Samples;Min_cycle;Max_cycle;Signal;HPM_P1;HPM_P2
2021/05/27 00:02:02;;;;;;;0.73;0.38;;;;;;;10.92;66.26;100597.09;6274970;22;20004;-74
2021/05/27 00:04:27;;;;;;;0.45;0.35;;;;;;;10.87;65.76;100594.31;6247523;22;20011;-74
2021/05/27 00:06:53;;;;;;;0.60;0.30;;;;;;;10.81;65.47;100596.19;6275623;22;20007;-74
2021/05/27 00:09:18;;;;;;;0.20;0.20;;;;;;;10.80;66.03;100601.94;6272356;22;20023;-73
2021/05/27 00:11:44;;;;;;;0.20;0.10;;;;;;;10.76;65.97;100592.59;6272830;22;20007;-73
2021/05/27 00:14:09;;;;;;;0.30;0.22;;;;;;;10.75;65.55;100607.38;6265233;22;20338;-72
2021/05/27 00:16:34;;;;;;;0.38;0.35;;;;;;;10.69;65.72;100597.47;6270326;22;20034;-72
2021/05/27 00:19:00;;;;;;;0.13;0.13;;;;;;;10.63;65.97;100605.66;6274432;22;20086;-72
2021/05/27 00:21:25;;;;;;;0.20;0.20;;;;;;;10.60;66.22;100606.19;6271960;22;20018;-73
2021/05/27 00:23:51;;;;;;;0.10;0.10;;;;;;;10.61;66.38;100616.00;6248640;22;20346;-73
2021/05/27 00:26:17;;;;;;;0.15;0.10;;;;;;;10.59;66.33;100601.78;6274185;22;20003;-73
2021/05/27 00:28:43;;;;;;;0.10;0.10;;;;;;;10.60;65.73;100617.13;6271012;22;20364;-74
2021/05/27 00:31:08;;;;;;;0.20;0.20;;;;;;;10.56;66.34;100610.50;6277679;22;20386;-76
2021/05/27 00:33:41;;;;;;;0.10;0.10;;;;;;;10.56;65.83;100610.50;6264593;22;20007;-75
2021/05/27 00:36:07;;;;;;;0.00;0.00;;;;;;;10.54;66.15;100612.69;6275436;22;20082;-75
2021/05/27 00:38:32;;;;;;;0.20;0.20;;;;;;;10.50;66.82;100611.56;6267205;22;20605;-75
2021/05/27 00:40:58;;;;;;;0.22;0.22;;;;;;;10.43;67.31;100613.69;6278632;22;20004;-75
2021/05/27 00:43:23;;;;;;;0.20;0.20;;;;;;;10.37;66.39;100617.47;6290023;22;20022;-77
2021/05/27 00:45:49;;;;;;;0.50;0.50;;;;;;;10.31;66.95;100617.38;6304649;22;20030;-75
2021/05/27 00:49:00;;;;;;;1.55;0.50;;;;;;;10.27;66.76;100621.72;6279497;22;20011;-76
2021/05/27 00:51:00;;;;;;;0.63;0.43;;;;;;;10.18;67.90;100626.00;6291793;22;20003;-76
2021/05/27 00:53:27;;;;;;;0.32;0.32;;;;;;;10.10;67.23;100621.00;6279976;22;20388;-75
2021/05/27 00:55:53;;;;;;;0.98;0.40;;;;;;;10.04;67.56;100624.78;6283375;22;20037;-74
2021/05/27 00:58:23;;;;;;;0.68;0.40;;;;;;;9.94;68.17;100618.13;6308729;22;19999;-78
2021/05/27 01:00:49;;;;;;;0.50;0.40;;;;;;;9.92;67.90;100623.00;6310821;22;20027;-78
2021/05/27 01:03:14;;;;;;;0.68;0.60;;;;;;;9.86;68.89;100618.56;6282507;22;20010;-79
2021/05/27 01:05:40;;;;;;;1.00;0.68;;;;;;;9.83;68.89;100616.38;6289344;22;20033;-78
2021/05/27 01:08:05;;;;;;;0.65;0.20;;;;;;;9.80;69.07;100614.16;6282638;22;20004;-79
2021/05/27 01:10:32;;;;;;;0.43;0.30;;;;;;;9.81;68.60;100612.22;6280714;22;20007;-78
2021/05/27 01:12:57;;;;;;;0.52;0.28;;;;;;;9.78;68.85;100619.03;6311974;22;20025;-78
2021/05/27 01:15:30;;;;;;;1.50;0.63;;;;;;;9.74;68.87;100615.19;6285284;22;20003;-76
2021/05/27 01:18:01;;;;;;;0.80;0.70;;;;;;;9.74;69.22;100620.63;6299333;22;20004;-81
2021/05/27 01:20:30;;;;;;;0.70;0.52;;;;;;;9.67;69.44;100617.28;6326436;22;20028;-80
2021/05/27 01:22:55;;;;;;;0.88;0.88;;;;;;;9.65;69.50;100624.88;6301310;22;20019;-81
2021/05/27 01:25:21;;;;;;;3.22;1.08;;;;;;;9.60;70.43;100625.66;6331393;22;20090;-81
2021/05/27 01:27:47;;;;;;;5.78;1.27;;;;;;;9.53;70.05;100628.56;6297745;22;20006;-81
2021/05/27 01:30:13;;;;;;;1.13;1.08;;;;;;;9.43;69.83;100632.00;6316482;22;20074;-80
2021/05/27 01:32:39;;;;;;;2.67;1.27;;;;;;;9.32;69.89;100632.13;6315106;22;20004;-81
2021/05/27 01:35:07;;;;;;;3.00;0.75;;;;;;;9.24;70.93;100631.47;6263710;22;20015;-80
2021/05/27 01:37:33;;;;;;;3.92;1.23;;;;;;;9.14;70.59;100634.06;6313658;22;19999;-79
2021/05/27 01:39:58;;;;;;;4.07;1.25;;;;;;;9.05;71.08;100635.56;6313462;22;20303;-79
2021/05/27 01:42:25;;;;;;;1.95;0.77;;;;;;;8.97;71.04;100628.63;6285935;22;20011;-78
2021/05/27 01:44:50;;;;;;;0.88;0.70;;;;;;;8.95;71.83;100629.97;6288466;22;20027;-79
2021/05/27 01:47:16;;;;;;;1.23;0.90;;;;;;;8.90;71.49;100628.78;6262199;22;20015;-81
2021/05/27 01:49:42;;;;;;;0.95;0.93;;;;;;;8.87;72.33;100629.31;6265965;22;20011;-82
2021/05/27 01:52:09;;;;;;;0.85;0.85;;;;;;;8.82;72.23;100621.06;6330324;22;20086;-80
2021/05/27 01:54:36;;;;;;;2.90;1.02;;;;;;;8.82;72.44;100621.06;6300553;22;20037;-79
2021/05/27 01:57:02;;;;;;;1.25;1.15;;;;;;;8.79;72.48;100618.84;6326623;22;20004;-80
2021/05/27 01:59:27;;;;;;;1.65;0.80;;;;;;;8.79;73.06;100624.28;6289405;22;20377;-79
2021/05/27 02:01:54;;;;;;;1.73;0.98;;;;;;;8.78;72.16;100630.81;6310739;22;20414;-79
2021/05/27 02:04:19;;;;;;;1.67;0.90;;;;;;;8.80;72.43;100633.28;6287600;22;20010;-81
2021/05/27 02:06:45;;;;;;;1.60;0.93;;;;;;;8.79;72.81;100627.00;6312590;22;20003;-80
2021/05/27 02:09:10;;;;;;;1.35;0.85;;;;;;;8.82;73.52;100631.97;6286966;22;20007;-78
2021/05/27 02:11:42;;;;;;;0.40;0.40;;;;;;;8.82;73.01;100631.97;6306832;22;20371;-78
2021/05/27 02:14:10;;;;;;;0.40;0.40;;;;;;;8.85;72.39;100631.47;6312170;22;20002;-78
2021/05/27 02:16:36;;;;;;;0.57;0.43;;;;;;;8.82;72.32;100625.66;6313294;22;20418;-78
2021/05/27 02:19:02;;;;;;;0.47;0.47;;;;;;;8.82;72.34;100626.50;6285215;22;20039;-77
2021/05/27 02:21:28;;;;;;;0.47;0.47;;;;;;;8.82;71.99;100629.25;6312636;22;19999;-79
2021/05/27 02:23:59;;;;;;;0.38;0.28;;;;;;;8.84;71.90;100627.06;6314161;22;20084;-77
2021/05/27 02:26:24;;;;;;;0.50;0.22;;;;;;;8.84;72.60;100637.16;6316010;22;20007;-77
2021/05/27 02:28:50;;;;;;;0.50;0.30;;;;;;;8.81;72.32;100630.31;6287275;22;20034;-79
2021/05/27 02:31:17;;;;;;;0.17;0.17;;;;;;;8.83;72.37;100638.22;6311610;22;20103;-80
2021/05/27 02:33:42;;;;;;;0.20;0.20;;;;;;;8.83;72.59;100644.50;6313808;22;20068;-77
2021/05/27 02:36:08;;;;;;;0.40;0.40;;;;;;;8.82;72.67;100640.16;6308655;22;20382;-78
2021/05/27 02:38:35;;;;;;;0.40;0.30;;;;;;;8.82;72.42;100642.88;6311482;22;20150;-78
2021/05/27 02:41:00;;;;;;;0.50;0.50;;;;;;;8.79;72.66;100643.38;6312398;22;20003;-79
2021/05/27 02:43:28;;;;;;;0.40;0.40;;;;;;;8.73;72.68;100633.44;6224004;23;20103;-78
2021/05/27 02:45:56;;;;;;;0.20;0.20;;;;;;;8.74;72.62;100641.38;6276191;22;20008;-79
2021/05/27 02:48:22;;;;;;;0.22;0.20;;;;;;;8.71;71.69;100636.41;6228823;23;20072;-79
2021/05/27 02:50:48;;;;;;;0.20;0.20;;;;;;;8.72;71.67;100650.91;6227150;23;20004;-80
2021/05/27 02:53:13;;;;;;;0.20;0.20;;;;;;;8.69;72.88;100645.94;6229320;23;20323;-78
2021/05/27 02:55:39;;;;;;;0.20;0.20;;;;;;;8.64;72.56;100641.19;6253243;23;20004;-79
2021/05/27 02:58:04;;;;;;;0.10;0.10;;;;;;;8.65;72.46;100642.06;6226319;23;20007;-80
2021/05/27 03:00:32;;;;;;;0.15;0.10;;;;;;;8.60;71.84;100631.06;6253497;22;20095;-79
2021/05/27 03:02:58;;;;;;;0.20;0.20;;;;;;;8.64;72.65;100640.38;6254472;23;20031;-79
2021/05/27 03:05:24;;;;;;;0.10;0.10;;;;;;;8.59;72.12;100641.13;6229946;23;20087;-80
2021/05/27 03:07:49;;;;;;;0.65;0.65;;;;;;;8.56;72.50;100649.81;6227662;23;20072;-81
2021/05/27 03:10:27;;;;;;;;;;;;;;;;;;;;;
2021/05/27 03:12:55;;;;;;;0.63;0.60;;;;;;;8.58;72.93;100661.28;6270746;22;19992;-80
2021/05/27 03:15:21;;;;;;;4.28;1.50;;;;;;;8.49;73.54;100660.88;6269673;22;20004;-79
2021/05/27 03:17:46;;;;;;;0.60;0.60;;;;;;;8.37;73.75;100630.94;6292612;22;20106;-80
2021/05/27 03:20:15;;;;;;;0.77;0.57;;;;;;;8.55;73.68;100672.69;6255281;23;20004;-82
2021/05/27 03:22:48;;;;;;;2.75;0.90;;;;;;;8.46;73.80;100655.09;6254048;23;20000;-80
2021/05/27 03:25:22;;;;;;;3.05;1.05;;;;;;;8.42;73.41;100662.88;6231482;23;20060;-80
2021/05/27 03:27:48;;;;;;;0.85;0.70;;;;;;;8.45;74.02;100681.50;6254883;23;20000;-81
2021/05/27 03:30:19;;;;;;;3.40;1.65;;;;;;;8.40;74.87;100667.78;6228732;23;20012;-79
2021/05/27 03:32:45;;;;;;;0.93;0.90;;;;;;;8.27;73.78;100659.91;6253280;23;20419;-80
2021/05/27 03:35:14;;;;;;;1.98;0.82;;;;;;;8.31;74.46;100669.22;6253357;23;20011;-77
2021/05/27 03:37:47;;;;;;;2.92;0.80;;;;;;;8.23;74.73;100665.00;6250262;22;19996;-77
2021/05/27 03:40:16;;;;;;;2.13;0.60;;;;;;;8.35;74.68;100681.28;6252143;22;20008;-78
2021/05/27 03:42:49;;;;;;;0.93;0.60;;;;;;;8.33;74.38;100683.44;6248776;23;20015;-79
2021/05/27 03:45:24;;;;;;;0.47;0.40;;;;;;;8.32;73.84;100681.78;6311471;22;20015;-79
2021/05/27 03:47:50;;;;;;;0.45;0.20;;;;;;;8.26;74.47;100675.41;6312190;22;20417;-78
2021/05/27 03:50:18;;;;;;;0.20;0.20;;;;;;;8.30;74.55;100689.38;6286012;22;20003;-77
2021/05/27 03:52:44;;;;;;;0.10;0.10;;;;;;;8.29;73.62;100682.28;6285094;22;20011;-77
2021/05/27 03:55:12;;;;;;;0.10;0.10;;;;;;;8.27;73.32;100687.16;6313567;22;20014;-76
2021/05/27 03:57:37;;;;;;;0.38;0.20;;;;;;;8.25;73.69;100681.09;6285541;22;19999;-76
2021/05/27 04:02:51;;;;;;;0.82;0.20;;;;;;;8.26;73.31;100677.31;6312883;22;20011;-76
2021/05/27 04:08:01;;;;;;;0.45;0.35;;;;;;;8.26;74.29;100677.31;6312313;22;20445;-77
2021/05/27 04:10:27;;;;;;;0.50;0.50;;;;;;;8.22;73.82;100674.28;6282318;22;20003;-77
2021/05/27 04:12:52;;;;;;;0.50;0.50;;;;;;;8.25;73.81;100675.66;6321988;22;20003;-78
2021/05/27 04:15:30;;;;;;;0.30;0.30;;;;;;;8.19;73.87;100672.84;6322043;22;20034;-78
2021/05/27 04:18:24;;;;;;;0.43;0.43;;;;;;;8.24;73.98;100680.28;6305555;22;19987;-81
2021/05/27 04:21:00;;;;;;;0.28;0.25;;;;;;;8.24;73.33;100680.28;6296460;22;20018;-77
2021/05/27 04:23:37;;;;;;;0.10;0.10;;;;;;;8.11;74.17;100673.22;6302467;22;20007;-78
2021/05/27 04:26:08;;;;;;;2.08;0.30;;;;;;;8.24;73.00;100690.38;6314292;22;20078;-77
2021/05/27 04:28:33;;;;;;;0.20;0.20;;;;;;;8.20;73.73;100687.28;6293690;22;20003;-77
2021/05/27 04:31:12;;;;;;;0.17;0.10;;;;;;;8.19;74.14;100685.63;6290648;22;20094;-77
2021/05/27 04:33:39;;;;;;;0.20;0.20;;;;;;;8.19;74.21;100688.34;6315225;22;20038;-78
2021/05/27 04:36:11;;;;;;;0.20;0.20;;;;;;;8.19;73.91;100693.81;6310059;22;20003;-77
2021/05/27 04:38:38;;;;;;;0.20;0.20;;;;;;;8.19;73.20;100700.09;6311980;22;20007;-76
2021/05/27 04:41:04;;;;;;;0.30;0.20;;;;;;;8.16;73.60;100695.13;6282756;22;20057;-77
2021/05/27 04:43:30;;;;;;;0.28;0.28;;;;;;;8.23;73.28;100694.16;6311154;22;20011;-76
2021/05/27 04:45:56;;;;;;;0.10;0.10;;;;;;;8.25;73.67;100700.19;6309997;22;20008;-81
2021/05/27 04:48:21;;;;;;;0.10;0.10;;;;;;;8.28;73.44;100692.34;6314104;22;20003;-78
2021/05/27 04:50:52;;;;;;;0.10;0.10;;;;;;;8.30;74.01;100694.84;6285815;22;20018;-79
2021/05/27 04:53:18;;;;;;;0.20;0.20;;;;;;;8.35;73.29;100697.63;6285701;22;20008;-78
2021/05/27 04:55:44;;;;;;;0.13;0.13;;;;;;;8.42;73.57;100700.22;6282584;22;20041;-79
2021/05/27 04:58:10;;;;;;;0.10;0.10;;;;;;;8.51;73.03;100706.94;6285530;22;20072;-78
2021/05/27 05:00:36;;;;;;;4.28;0.13;;;;;;;8.54;72.99;100701.84;6283919;22;20019;-80
2021/05/27 05:03:03;;;;;;;0.20;0.20;;;;;;;8.58;72.84;100701.34;6287739;22;20006;-78
2021/05/27 05:05:29;;;;;;;0.10;0.05;;;;;;;8.69;72.76;100708.66;6285065;22;20012;-79
2021/05/27 05:07:55;;;;;;;0.20;0.20;;;;;;;8.74;73.18;100706.00;6314828;22;20062;-77
2021/05/27 05:10:23;;;;;;;0.47;0.40;;;;;;;8.80;72.26;100702.28;6284430;22;20011;-80
2021/05/27 05:12:50;;;;;;;0.20;0.20;;;;;;;8.87;72.21;100716.56;6287115;22;20033;-79
2021/05/27 05:15:29;;;;;;;0.20;0.20;;;;;;;8.96;72.79;100713.44;6262590;22;20018;-79
2021/05/27 05:18:01;;;;;;;0.10;0.10;;;;;;;9.01;71.82;100710.78;6314314;22;20006;-79
2021/05/27 05:20:34;;;;;;;0.85;0.70;;;;;;;9.06;72.34;100708.16;6288884;22;20049;-79
2021/05/27 05:23:01;;;;;;;4.28;1.08;;;;;;;9.08;72.93;100712.28;6288074;22;20010;-80
2021/05/27 05:25:29;;;;;;;0.70;0.70;;;;;;;9.14;71.79;100710.47;6285993;22;20003;-79
2021/05/27 05:27:55;;;;;;;0.80;0.80;;;;;;;9.17;72.39;100709.97;6294995;22;20007;-79
2021/05/27 05:30:22;;;;;;;0.50;0.50;;;;;;;9.25;72.00;100717.72;6293683;22;20010;-80
2021/05/27 05:32:48;;;;;;;0.55;0.55;;;;;;;9.34;71.97;100726.28;6301409;22;20074;-80
2021/05/27 05:35:15;;;;;;;0.57;0.47;;;;;;;9.44;72.50;100728.34;6289806;22;20011;-77
2021/05/27 05:37:42;;;;;;;0.30;0.30;;;;;;;9.50;72.33;100724.63;6312496;22;20414;-79
2021/05/27 05:40:09;;;;;;;0.75;0.30;;;;;;;9.61;71.79;100733.78;6265191;22;20381;-78
2021/05/27 05:42:35;;;;;;;0.20;0.20;;;;;;;9.69;72.37;100721.59;6286419;22;20084;-78
2021/05/27 05:45:01;;;;;;;0.20;0.20;;;;;;;9.78;71.71;100722.81;6254526;22;20028;-78
2021/05/27 05:47:26;;;;;;;0.05;0.05;;;;;;;9.89;71.57;100734.69;6251197;23;20015;-79
2021/05/27 05:49:52;;;;;;;0.47;0.40;;;;;;;9.93;71.67;100728.47;6252774;23;20415;-81
2021/05/27 05:52:17;;;;;;;1.23;0.20;;;;;;;9.99;71.43;100731.25;6227657;23;20059;-79
2021/05/27 05:54:47;;;;;;;0.25;0.25;;;;;;;10.03;71.07;100726.94;6202428;23;20004;-77
2021/05/27 05:57:15;;;;;;;0.35;0.22;;;;;;;10.07;71.07;100717.16;6225899;23;20483;-77
2021/05/27 05:59:43;;;;;;;1.00;0.20;;;;;;;10.20;71.09;100729.59;6252906;23;20023;-77
2021/05/27 06:02:10;;;;;;;0.20;0.20;;;;;;;10.29;70.70;100734.38;6227198;23;20424;-76
2021/05/27 06:04:35;;;;;;;0.30;0.30;;;;;;;10.39;71.21;100719.19;6225361;23;20027;-74
2021/05/27 06:07:00;;;;;;;0.30;0.30;;;;;;;10.48;70.55;100723.09;6252546;23;20011;-76
2021/05/27 06:09:26;;;;;;;0.20;0.20;;;;;;;10.61;70.34;100728.13;6226574;23;20019;-76
2021/05/27 06:11:55;;;;;;;0.20;0.20;;;;;;;10.71;70.44;100729.34;6252724;23;20056;-77
2021/05/27 06:14:21;;;;;;;0.30;0.30;;;;;;;10.84;70.22;100739.84;6261208;23;20054;-78
2021/05/27 06:16:47;;;;;;;0.30;0.30;;;;;;;10.87;69.93;100736.59;6236051;23;20015;-79
2021/05/27 06:19:13;;;;;;;0.50;0.50;;;;;;;10.99;69.55;100745.47;6256999;22;20143;-76
2021/05/27 06:21:39;;;;;;;1.15;1.00;;;;;;;11.00;69.52;100744.34;6254837;23;20003;-80
2021/05/27 06:24:12;;;;;;;1.10;0.77;;;;;;;11.00;69.72;100738.06;6259567;23;20062;-82
2021/05/27 06:26:38;;;;;;;1.48;0.75;;;;;;;11.12;69.06;100757.03;6253958;23;20018;-81
2021/05/27 06:29:16;;;;;;;;;;;;;;;;;;;;;
2021/05/27 06:31:54;;;;;;;1.67;1.23;;;;;;;11.05;68.95;100738.09;6253174;23;20036;-80
2021/05/27 06:34:30;;;;;;;1.50;0.98;;;;;;;11.27;69.61;100762.66;6232098;23;20077;-80
2021/05/27 06:36:58;;;;;;;1.23;1.17;;;;;;;11.20;69.18;100748.34;6254590;23;20050;-80
2021/05/27 06:39:24;;;;;;;3.35;1.55;;;;;;;11.23;69.11;100745.09;6251811;23;20004;-79
2021/05/27 06:41:52;;;;;;;1.17;0.88;;;;;;;11.31;68.96;100747.31;6254470;23;20080;-81
2021/05/27 06:44:18;;;;;;;0.90;0.90;;;;;;;11.50;69.35;100760.59;6253316;22;20047;-79
2021/05/27 06:46:44;;;;;;;0.30;0.30;;;;;;;11.62;68.94;100758.50;6253852;23;20003;-80
2021/05/27 06:49:11;;;;;;;0.30;0.30;;;;;;;11.80;68.61;100761.88;6251469;23;20066;-80
2021/05/27 06:51:37;;;;;;;0.30;0.30;;;;;;;11.83;68.48;100744.91;6224479;23;20011;-79
2021/05/27 06:54:08;;;;;;;0.50;0.50;;;;;;;12.11;68.60;100765.59;6220221;23;20370;-79
2021/05/27 06:56:36;;;;;;;2.55;0.90;;;;;;;12.14;68.44;100739.59;6222293;23;20038;-79
2021/05/27 06:59:09;;;;;;;0.70;0.55;;;;;;;12.31;68.42;100747.56;6252767;23;20004;-78
2021/05/27 07:01:38;;;;;;;1.58;0.70;;;;;;;12.57;68.19;100759.44;6204000;23;20362;-80
2021/05/27 07:04:08;;;;;;;1.42;0.57;;;;;;;12.69;68.05;100743.56;6224105;23;20004;-79
2021/05/27 07:07:11;;;;;;;3.10;0.70;;;;;;;13.07;68.54;100777.06;6224082;23;20004;-80
2021/05/27 07:09:39;;;;;;;0.40;0.40;;;;;;;13.08;67.51;100762.25;6220724;23;20000;-79
2021/05/27 07:12:16;;;;;;;0.85;0.60;;;;;;;13.28;67.50;100788.03;6223241;23;20334;-79
2021/05/27 07:14:49;;;;;;;0.68;0.40;;;;;;;13.25;67.13;100755.66;6201029;23;20015;-79
2021/05/27 07:17:26;;;;;;;1.02;0.60;;;;;;;13.35;67.15;100761.16;6251377;23;20011;-79
2021/05/27 07:19:55;;;;;;;2.55;0.95;;;;;;;13.65;66.87;100786.91;6250737;23;20031;-78
2021/05/27 07:22:20;;;;;;;0.47;0.40;;;;;;;13.71;66.38;100788.59;6252131;23;20078;-78
2021/05/27 07:25:02;;;;;;;0.65;0.52;;;;;;;13.84;66.03;100784.41;6221312;23;20004;-79
2021/05/27 07:27:28;;;;;;;0.40;0.40;;;;;;;13.98;65.64;100784.66;6221707;23;20039;-80
2021/05/27 07:29:56;;;;;;;0.60;0.60;;;;;;;14.03;65.73;100778.31;6251701;23;20015;-79
2021/05/27 07:32:32;;;;;;;0.60;0.60;;;;;;;14.07;65.14;100780.22;6249567;23;20003;-79
2021/05/27 07:35:02;;;;;;;1.10;0.50;;;;;;;14.19;65.40;100779.88;6223049;23;20123;-79
2021/05/27 07:38:32;;;;;;;;;;;;;;;;;;;;;
2021/05/27 07:41:09;;;;;;;;;;;;;;;;;;;;;
2021/05/27 07:44:33;;;;;;;0.35;0.35;;;;;;;14.72;64.87;100798.66;6264906;22;20047;-78
2021/05/27 07:51:44;;;;;;;;;;;;;;;;;;;;;
2021/05/27 07:55:15;;;;;;;;;;;;;;;;;;;;;
2021/05/27 08:01:48;;;;;;;0.68;0.50;;;;;;;15.36;62.96;100785.75;6069717;23;20450;-74
2021/05/27 08:04:41;;;;;;;0.52;0.45;;;;;;;15.43;63.01;100784.59;6134259;23;20042;-74
2021/05/27 08:07:45;;;;;;;0.47;0.47;;;;;;;15.62;62.47;100799.28;6153555;23;20144;-74
2021/05/27 08:10:12;;;;;;;2.10;0.52;;;;;;;15.82;62.33;100798.28;6154560;23;20009;-77
2021/05/27 08:12:38;;;;;;;0.55;0.52;;;;;;;15.87;62.18;100783.63;6244459;23;20034;-77
2021/05/27 08:15:10;;;;;;;0.73;0.40;;;;;;;16.08;62.16;100798.00;6287877;22;20011;-76
2021/05/27 08:18:03;;;;;;;0.40;0.40;;;;;;;16.35;61.50;100807.59;6284387;22;20014;-76
2021/05/27 08:20:32;;;;;;;0.40;0.40;;;;;;;16.30;60.90;100796.66;6280925;22;20003;-77
2021/05/27 08:23:42;;;;;;;0.20;0.20;;;;;;;16.55;60.62;100821.13;6283837;22;20003;-76
2021/05/27 08:26:10;;;;;;;0.65;0.65;;;;;;;16.64;60.53;100823.25;6285799;22;20015;-76
2021/05/27 08:28:57;;;;;;;;;;;;;;;;;;;;;
2021/05/27 08:34:43;;;;;;;1.92;0.60;;;;;;;16.96;57.18;100825.28;6188436;23;20023;-77
2021/05/27 08:37:23;;;;;;;1.10;0.77;;;;;;;16.87;56.01;100835.34;6282205;22;20031;-76
2021/05/27 08:40:02;;;;;;;0.32;0.30;;;;;;;16.93;57.12;100840.50;6285009;22;19999;-76
2021/05/27 08:42:35;;;;;;;4.45;1.20;;;;;;;16.89;54.08;100833.97;6283030;22;20086;-78
2021/05/27 08:45:13;;;;;;;;;;;;;;;;;;;;;
2021/05/27 08:47:50;;;;;;;0.30;0.30;;;;;;;16.78;53.65;100835.19;6303207;22;20038;-76
2021/05/27 08:50:48;;;;;;;1.48;0.40;;;;;;;16.92;54.03;100836.13;6282664;22;20015;-76
2021/05/27 08:53:18;;;;;;;0.75;0.70;;;;;;;16.90;53.11;100832.03;6278656;22;20060;-75
2021/05/27 08:55:50;;;;;;;1.48;0.55;;;;;;;17.04;53.45;100832.06;6282449;22;20007;-76
2021/05/27 08:58:17;;;;;;;1.45;0.85;;;;;;;17.10;53.82;100822.59;6301910;22;20003;-76
2021/05/27 09:00:43;;;;;;;0.30;0.30;;;;;;;17.31;54.65;100825.84;6282992;22;20007;-76
2021/05/27 09:03:10;;;;;;;0.15;0.13;;;;;;;17.53;54.35;100816.91;6282743;22;20356;-76
2021/05/27 09:05:38;;;;;;;0.30;0.30;;;;;;;17.89;54.19;100830.09;6283920;22;20003;-76
2021/05/27 09:08:27;;;;;;;1.30;0.43;;;;;;;17.98;52.60;100821.13;6288367;22;20006;-77
2021/05/27 09:10:56;;;;;;;1.23;0.63;;;;;;;17.95;51.69;100825.31;6283354;22;20360;-75
2021/05/27 09:13:21;;;;;;;0.20;0.20;;;;;;;18.05;52.04;100840.91;6312641;22;20089;-75
2021/05/27 09:15:49;;;;;;;0.32;0.32;;;;;;;18.12;51.98;100833.00;6286221;22;20719;-77
2021/05/27 09:18:38;;;;;;;0.70;0.25;;;;;;;18.31;51.92;100828.19;6313037;22;19999;-77
2021/05/27 09:21:08;;;;;;;0.68;0.38;;;;;;;18.32;49.95;100823.47;6282937;22;20025;-76
2021/05/27 09:23:35;;;;;;;0.90;0.60;;;;;;;18.35;49.30;100844.19;6284809;22;20026;-76
2021/05/27 09:26:13;;;;;;;0.52;0.47;;;;;;;18.35;50.32;100835.88;6311891;22;20007;-77
2021/05/27 09:28:45;;;;;;;0.70;0.57;;;;;;;18.40;50.51;100844.91;6305243;22;19995;-77
2021/05/27 09:31:22;;;;;;;0.73;0.45;;;;;;;18.46;50.36;100840.06;6327460;22;20012;-78
2021/05/27 09:34:01;;;;;;;3.25;0.40;;;;;;;18.55;48.26;100849.28;6334353;22;20011;-78
2021/05/27 09:36:26;;;;;;;0.35;0.35;;;;;;;18.49;47.81;100847.75;6303676;22;19991;-77
2021/05/27 09:39:02;;;;;;;0.95;0.52;;;;;;;18.41;48.04;100829.94;6304561;22;20094;-77
2021/05/27 09:41:33;;;;;;;1.35;0.28;;;;;;;18.60;48.47;100838.09;6308350;22;19999;-77
2021/05/27 09:44:02;;;;;;;0.30;0.30;;;;;;;18.80;45.00;100847.09;6286859;22;20437;-76
2021/05/27 09:46:46;;;;;;;0.25;0.13;;;;;;;18.81;44.29;100854.28;6313200;22;20045;-77
2021/05/27 09:49:22;;;;;;;;;;;;;;;;;;;;;
2021/05/27 09:52:11;;;;;;;0.22;0.20;;;;;;;18.86;44.36;100845.88;6310604;22;20050;-77
2021/05/27 09:54:54;;;;;;;1.02;0.25;;;;;;;19.24;44.51;100845.53;6286118;22;20352;-78
2021/05/27 09:57:27;;;;;;;0.25;0.25;;;;;;;19.57;43.19;100848.06;6284455;22;20072;-76
2021/05/27 09:59:54;;;;;;;2.33;0.45;;;;;;;20.00;41.78;100850.25;6260695;22;20007;-77
2021/05/27 10:02:21;;;;;;;0.25;0.22;;;;;;;20.62;41.88;100859.63;6277013;22;20006;-78
2021/05/27 10:05:13;;;;;;;2.78;0.73;;;;;;;21.71;41.95;100860.66;6257703;22;20032;-77
2021/05/27 10:08:23;;;;;;;;;;;;;;;;;;;;;
2021/05/27 10:10:49;;;;;;;0.38;0.30;;;;;;;23.44;37.85;100850.81;6308196;22;20034;-75
2021/05/27 10:13:26;;;;;;;1.73;0.30;;;;;;;23.83;37.31;100865.34;6282619;22;20440;-78
2021/05/27 10:15:58;;;;;;;0.20;0.20;;;;;;;23.93;36.39;100863.28;6283062;22;20008;-77
2021/05/27 10:18:24;;;;;;;0.98;0.40;;;;;;;24.69;35.65;100863.78;6283109;22;19999;-79
2021/05/27 10:20:50;;;;;;;0.40;0.30;;;;;;;25.47;32.41;100858.13;6282826;22;20003;-78
2021/05/27 10:23:54;;;;;;;3.22;0.50;;;;;;;26.94;33.92;100864.63;6280523;22;19996;-78
2021/05/27 10:26:21;;;;;;;2.85;0.40;;;;;;;28.03;28.93;100871.19;6274925;22;19999;-77
2021/05/27 10:29:07;;;;;;;0.30;0.20;;;;;;;28.78;27.91;100867.16;6305432;22;20011;-80
2021/05/27 10:31:37;;;;;;;0.75;0.10;;;;;;;29.05;25.06;100874.38;6305359;22;20025;-79
2021/05/27 10:34:04;;;;;;;0.32;0.20;;;;;;;29.21;23.18;100876.19;6279639;22;20007;-80
2021/05/27 10:36:43;;;;;;;1.25;0.30;;;;;;;29.40;23.19;100867.59;6285667;22;20007;-79
2021/05/27 10:39:09;;;;;;;0.70;0.25;;;;;;;29.89;24.79;100864.88;6309343;22;20025;-78
2021/05/27 10:41:35;;;;;;;0.50;0.20;;;;;;;30.55;23.08;100884.81;6282372;22;20007;-78
2021/05/27 10:44:00;;;;;;;0.20;0.10;;;;;;;30.94;23.18;100880.59;6310979;22;20516;-79
2021/05/27 10:46:27;;;;;;;0.20;0.20;;;;;;;31.67;23.38;100872.06;6282838;22;20003;-78
2021/05/27 10:48:53;;;;;;;0.10;0.10;;;;;;;32.46;23.08;100879.78;6313806;22;20014;-78
2021/05/27 10:51:35;;;;;;;0.40;0.30;;;;;;;33.61;23.58;100886.31;6275930;22;20416;-80
2021/05/27 10:54:14;;;;;;;1.70;0.40;;;;;;;34.29;19.28;100888.69;6309361;22;20006;-80
2021/05/27 10:56:44;;;;;;;0.25;0.10;;;;;;;34.23;18.56;100890.34;6311071;22;20071;-79
2021/05/27 10:59:12;;;;;;;0.40;0.10;;;;;;;34.08;18.73;100884.78;6308901;22;20039;-77
2021/05/27 11:01:39;;;;;;;0.38;0.20;;;;;;;34.31;18.64;100888.28;6297354;22;20003;-79
2021/05/27 11:04:09;;;;;;;1.25;0.35;;;;;;;34.16;18.13;100885.53;6304744;22;20014;-78
2021/05/27 11:06:40;;;;;;;0.55;0.28;;;;;;;34.45;18.82;100882.47;6274051;22;20038;-76
2021/05/27 11:12:08;;;;;;;0.30;0.20;;;;;;;35.62;18.30;100892.09;6302131;22;20076;-78
2021/05/27 11:15:02;;;;;;;0.20;0.10;;;;;;;35.72;16.03;100878.91;6274467;22;20025;-78
2021/05/27 11:17:35;;;;;;;0.35;0.10;;;;;;;35.73;17.54;100883.38;6268790;22;20061;-79
2021/05/27 11:20:18;;;;;;;0.20;0.10;;;;;;;35.58;18.31;100871.41;6281081;22;20000;-80
2021/05/27 11:23:07;;;;;;;0.10;0.00;;;;;;;36.71;19.17;100897.63;6279229;22;20003;-78
2021/05/27 11:25:36;;;;;;;0.00;0.00;;;;;;;38.24;19.20;100896.78;6148929;23;20434;-80
2021/05/27 11:28:03;;;;;;;0.40;0.13;;;;;;;37.92;13.08;100897.56;6238943;22;20329;-78
2021/05/27 11:30:39;;;;;;;2.83;0.10;;;;;;;36.12;14.17;100884.81;6279029;22;20003;-78
2021/05/27 11:33:30;;;;;;;0.45;0.20;;;;;;;35.72;13.54;100896.81;6306995;22;20065;-78
2021/05/27 11:36:15;;;;;;;1.30;0.30;;;;;;;35.58;15.18;100897.00;6302036;22;20414;-79
2021/05/27 11:38:41;;;;;;;0.55;0.30;;;;;;;36.04;15.80;100895.53;6272783;22;20102;-78
2021/05/27 11:41:40;;;;;;;0.30;0.10;;;;;;;37.01;15.25;100916.59;6275539;22;20003;-79
2021/05/27 11:44:09;;;;;;;0.68;0.20;;;;;;;37.51;16.08;100908.25;6296088;22;20092;-79
2021/05/27 11:46:34;;;;;;;0.10;0.10;;;;;;;38.38;15.65;100901.34;6251390;22;20369;-78
2021/05/27 11:49:00;;;;;;;1.08;0.40;;;;;;;38.64;13.38;100907.97;6308380;22;20003;-79
2021/05/27 11:51:32;;;;;;;0.20;0.15;;;;;;;38.68;13.69;100911.53;6252967;22;20007;-78
2021/05/27 11:54:10;;;;;;;0.88;0.15;;;;;;;39.01;14.62;100908.59;6301824;22;20002;-80
2021/05/27 11:56:46;;;;;;;0.20;0.10;;;;;;;39.65;14.58;100905.09;6285253;22;20080;-79
2021/05/27 11:59:17;;;;;;;0.30;0.10;;;;;;;39.61;12.52;100913.00;6309880;22;19999;-79
2021/05/27 12:01:45;;;;;;;0.85;0.20;;;;;;;38.09;12.57;100904.09;6307524;22;20369;-78
2021/05/27 12:04:17;;;;;;;0.55;0.32;;;;;;;37.76;13.84;100904.06;6281276;22;20577;-79
2021/05/27 12:06:56;;;;;;;0.30;0.30;;;;;;;37.86;13.92;100903.00;6307515;22;20352;-78
2021/05/27 12:09:30;;;;;;;1.48;0.30;;;;;;;37.11;13.88;100896.88;6309679;22;19995;-78
2021/05/27 12:12:56;;;;;;;;;;;;;;;;;;;;;
2021/05/27 12:15:23;;;;;;;0.25;0.10;;;;;;;38.45;15.54;100888.91;6156160;23;20526;-79
2021/05/27 12:18:08;;;;;;;;;;;;;;;;;;;;;
2021/05/27 12:20:47;;;;;;;;;;;;;;;;;;;;;
2021/05/27 12:23:16;;;;;;;0.47;0.30;;;;;;;40.66;12.06;100878.81;6298580;22;20082;-75
2021/05/27 12:25:44;;;;;;;0.20;0.10;;;;;;;40.76;12.86;100894.81;6304389;22;20007;-77